createdAt,value
2023-04-02T00:01:26.680Z,101406.72
2023-04-02T00:04:14.565Z,101408.59
2023-04-02T00:06:45.765Z,101415.53
2023-04-02T00:09:36.992Z,101401.97
2023-04-02T00:12:20.630Z,101426.94
2023-04-02T00:14:52.572Z,101431.44
2023-04-02T00:17:21.757Z,101427.03
2023-04-02T00:19:56.329Z,101447.22
2023-04-02T00:22:28.500Z,101431.41
2023-04-02T00:24:57.454Z,101461.38
2023-04-02T00:27:25.242Z,101440.38
2023-04-02T00:29:54.959Z,101445.31
2023-04-02T00:32:26.018Z,101458.94
2023-04-02T00:34:56.104Z,101456.63
2023-04-02T00:37:28.039Z,101467.41
2023-04-02T00:40:01.586Z,101459.53
2023-04-02T00:42:32.181Z,101471.81
2023-04-02T00:45:02.429Z,101478.91
2023-04-02T00:47:36.236Z,101473.19
2023-04-02T00:50:19.741Z,101492.84
2023-04-02T00:52:50.071Z,101495.59
2023-04-02T00:55:22.737Z,101506.72
2023-04-02T00:57:52.227Z,101501.31
2023-04-02T01:00:25.261Z,101499.50
2023-04-02T01:03:43.940Z,101500.03
2023-04-02T01:06:16.711Z,101503.28
2023-04-02T01:08:56.710Z,101524.44
2023-04-02T01:11:37.877Z,101514.28
2023-04-02T01:14:16.581Z,101506.31
2023-04-02T01:16:54.135Z,101516.22
2023-04-02T01:19:55.199Z,101522.44
2023-04-02T01:22:35.237Z,101523.25
2023-04-02T01:25:04.468Z,101530.63
2023-04-02T01:27:39.805Z,101529.72
2023-04-02T01:30:12.666Z,101536.19
2023-04-02T01:32:41.770Z,101507.31
2023-04-02T01:35:11.306Z,101534.00
2023-04-02T01:37:49.696Z,101540.09
2023-04-02T01:40:33.953Z,101545.31
2023-04-02T01:43:14.283Z,101562.38
2023-04-02T01:45:43.561Z,101550.31
2023-04-02T01:48:16.697Z,101570.34
2023-04-02T01:50:46.720Z,101563.25
2023-04-02T01:53:16.656Z,101576.91
2023-04-02T01:55:48.759Z,101583.31
2023-04-02T01:58:20.697Z,101579.41
2023-04-02T02:00:54.375Z,101570.03
2023-04-02T02:03:22.767Z,101568.44
2023-04-02T02:05:51.458Z,101590.38
2023-04-02T02:08:31.248Z,101593.41
2023-04-02T02:10:59.149Z,101589.72
2023-04-02T02:13:27.031Z,101618.34
2023-04-02T02:15:58.566Z,101602.16
2023-04-02T02:18:27.603Z,101616.31
2023-04-02T02:20:58.258Z,101610.75
2023-04-02T02:23:29.010Z,101617.69
2023-04-02T02:25:56.941Z,101601.22
2023-04-02T02:28:28.837Z,101628.44
2023-04-02T02:31:01.392Z,101626.31
2023-04-02T02:33:31.829Z,101625.56
2023-04-02T02:36:02.748Z,101612.38
2023-04-02T02:38:41.854Z,101630.44
2023-04-02T02:41:17.455Z,101627.91
2023-04-02T02:43:50.212Z,101641.59
2023-04-02T02:46:24.108Z,101641.94
2023-04-02T02:48:54.965Z,101644.91
2023-04-02T02:51:28.237Z,101654.66
2023-04-02T02:54:00.337Z,101656.19
2023-04-02T02:56:32.169Z,101664.84
2023-04-02T02:59:00.322Z,101663.81
2023-04-02T03:01:32.204Z,101671.94
2023-04-02T03:04:01.622Z,101664.66
2023-04-02T03:06:29.769Z,101621.97
2023-04-02T03:09:04.428Z,101677.50
2023-04-02T03:11:38.107Z,101669.88
2023-04-02T03:14:16.906Z,101681.78
2023-04-02T03:16:50.097Z,101676.00
2023-04-02T03:19:28.499Z,101693.66
2023-04-02T03:22:03.424Z,101694.41
2023-04-02T03:24:37.192Z,101701.00
2023-04-02T03:27:11.416Z,101700.97
2023-04-02T03:29:43.361Z,101707.28
2023-04-02T03:32:18.499Z,101716.41
2023-04-02T03:34:50.143Z,101706.84
2023-04-02T03:37:22.488Z,101724.81
2023-04-02T03:39:55.880Z,101732.19
2023-04-02T03:42:26.156Z,101722.53
2023-04-02T03:44:58.475Z,101751.91
2023-04-02T03:47:34.187Z,101715.75
2023-04-02T03:50:07.429Z,101754.66
2023-04-02T03:52:37.712Z,101747.22
2023-04-02T03:55:15.948Z,101756.56
2023-04-02T03:57:48.190Z,101732.94
2023-04-02T04:00:20.821Z,101744.41
2023-04-02T04:02:53.275Z,101780.41
2023-04-02T04:05:26.239Z,101782.34
2023-04-02T04:08:00.923Z,101781.19
2023-04-02T04:10:30.368Z,101798.31
2023-04-02T04:13:05.013Z,101707.41
2023-04-02T04:15:37.971Z,101780.72
2023-04-02T04:18:19.401Z,101796.34
2023-04-02T04:20:56.304Z,101818.72
2023-04-02T04:23:30.276Z,101800.19
2023-04-02T04:26:02.033Z,101807.84
2023-04-02T04:28:38.423Z,101817.59
2023-04-02T04:31:18.081Z,101816.66
2023-04-02T04:33:54.797Z,101831.81
2023-04-02T04:36:29.011Z,101823.84
2023-04-02T04:39:00.523Z,101835.59
2023-04-02T04:41:32.839Z,101834.09
2023-04-02T04:44:08.064Z,101842.59
2023-04-02T04:46:41.770Z,101832.97
2023-04-02T04:49:15.649Z,101847.63
2023-04-02T04:51:48.058Z,101847.44
2023-04-02T04:54:17.043Z,101858.78
2023-04-02T04:56:48.508Z,101861.41
2023-04-02T04:59:21.921Z,101858.22
2023-04-02T05:01:54.641Z,101881.03
2023-04-02T05:04:27.704Z,101873.72
2023-04-02T05:06:58.414Z,101891.72
2023-04-02T05:09:33.571Z,101902.22
2023-04-02T05:12:07.810Z,101868.72
2023-04-02T05:14:41.275Z,101905.50
2023-04-02T05:17:15.587Z,101909.34
2023-04-02T05:19:49.631Z,101925.72
2023-04-02T05:22:27.175Z,101920.31
2023-04-02T05:25:04.574Z,101922.31
2023-04-02T05:27:41.533Z,101928.47
2023-04-02T05:30:17.438Z,101910.56
2023-04-02T05:32:51.398Z,101936.13
2023-04-02T05:35:26.596Z,101932.16
2023-04-02T05:37:54.517Z,101911.13
2023-04-02T05:40:26.839Z,101931.41
2023-04-02T05:42:55.786Z,101947.63
2023-04-02T05:45:32.867Z,101948.03
2023-04-02T05:48:04.576Z,101945.34
2023-04-02T05:50:39.969Z,101941.06
2023-04-02T05:53:12.153Z,101938.00
2023-04-02T05:55:46.176Z,101951.44
2023-04-02T05:58:35.282Z,101955.44
2023-04-02T06:01:22.926Z,101939.59
2023-04-02T06:04:01.724Z,101933.13
2023-04-02T06:06:45.132Z,101961.81
2023-04-02T06:09:16.795Z,101970.84
2023-04-02T06:11:47.526Z,101960.22
2023-04-02T06:14:17.945Z,101982.09
2023-04-02T06:16:47.204Z,101993.84
2023-04-02T06:19:20.536Z,102002.63
2023-04-02T06:21:52.689Z,102002.84
2023-04-02T06:24:26.268Z,101999.69
2023-04-02T06:26:58.724Z,102007.03
2023-04-02T06:29:33.981Z,101995.31
2023-04-02T06:32:03.138Z,102014.47
2023-04-02T06:34:32.822Z,102015.97
2023-04-02T06:37:04.993Z,102013.22
2023-04-02T06:39:32.897Z,101971.38
2023-04-02T06:42:03.932Z,102005.53
2023-04-02T06:44:36.316Z,102006.78
2023-04-02T06:47:08.363Z,101986.03
2023-04-02T06:49:43.709Z,102007.63
2023-04-02T06:52:20.953Z,102002.41
2023-04-02T06:54:49.312Z,102010.13
2023-04-02T06:57:18.335Z,102008.75
2023-04-02T06:59:46.225Z,102006.63
2023-04-02T07:02:27.716Z,102009.94
2023-04-02T07:05:00.053Z,102013.88
2023-04-02T07:07:29.283Z,101993.84
2023-04-02T07:09:57.934Z,102029.88
2023-04-02T07:12:26.733Z,101977.63
2023-04-02T07:14:54.768Z,102025.75
2023-04-02T07:17:22.915Z,102015.63
2023-04-02T07:19:50.713Z,102031.81
2023-04-02T07:22:19.844Z,102044.31
2023-04-02T07:24:48.937Z,102035.13
2023-04-02T07:27:16.958Z,102054.00
2023-04-02T07:29:44.774Z,102041.88
2023-04-02T07:32:13.259Z,102064.69
2023-04-02T07:34:42.378Z,102073.44
2023-04-02T07:37:13.895Z,102055.13
2023-04-02T07:39:41.748Z,102068.13
2023-04-02T07:42:11.254Z,102085.38
2023-04-02T07:44:39.041Z,102034.03
2023-04-02T07:47:07.422Z,102084.72
2023-04-02T07:49:35.242Z,102061.75
2023-04-02T07:52:02.975Z,102086.41
2023-04-02T07:54:30.786Z,102093.34
2023-04-02T07:56:58.489Z,102086.91
2023-04-02T07:59:27.561Z,102084.44
2023-04-02T08:01:55.464Z,102094.72
2023-04-02T08:04:23.875Z,102092.47
2023-04-02T08:06:52.880Z,102063.94
2023-04-02T08:09:20.786Z,102098.31
2023-04-02T08:11:48.609Z,102069.47
2023-04-02T08:14:16.320Z,102113.50
2023-04-02T08:16:50.812Z,102104.38
2023-04-02T08:19:18.862Z,102136.06
2023-04-02T08:21:48.088Z,102138.75
2023-04-02T08:24:17.937Z,102126.50
2023-04-02T08:26:45.725Z,102125.88
2023-04-02T08:29:13.420Z,102108.56
2023-04-02T08:31:41.660Z,102123.50
2023-04-02T08:34:10.919Z,102118.88
2023-04-02T08:36:40.426Z,102127.19
2023-04-02T08:39:11.633Z,102135.41
2023-04-02T08:41:45.971Z,102137.88
2023-04-02T08:44:23.507Z,102142.41
2023-04-02T08:46:55.493Z,102155.91
2023-04-02T08:49:32.276Z,102166.53
2023-04-02T08:52:00.776Z,102155.28
2023-04-02T08:54:30.593Z,102154.47
2023-04-02T08:57:03.093Z,102147.53
2023-04-02T08:59:35.476Z,102170.03
2023-04-02T09:02:22.471Z,102159.56
2023-04-02T09:04:52.453Z,102160.00
2023-04-02T09:07:20.330Z,102156.19
2023-04-02T09:09:49.835Z,102150.97
2023-04-02T09:12:20.442Z,102185.13
2023-04-02T09:15:00.968Z,102196.22
2023-04-02T09:17:32.810Z,102199.00
2023-04-02T09:20:17.926Z,102211.13
2023-04-02T09:22:46.939Z,102226.19
2023-04-02T09:25:18.092Z,102227.00
2023-04-02T09:27:49.123Z,102230.78
2023-04-02T09:30:29.527Z,102238.03
2023-04-02T09:33:00.795Z,102235.91
2023-04-02T09:35:32.415Z,102245.72
2023-04-02T09:38:19.715Z,102247.94
2023-04-02T09:40:51.107Z,102248.03
2023-04-02T09:43:20.904Z,102271.66
2023-04-02T09:45:59.339Z,102259.81
2023-04-02T09:48:31.300Z,102256.94
2023-04-02T09:51:15.365Z,102247.25
2023-04-02T09:53:45.933Z,102267.75
2023-04-02T09:56:19.388Z,102267.13
2023-04-02T09:59:02.536Z,102274.47
2023-04-02T10:01:33.138Z,102260.84
2023-04-02T10:04:03.570Z,102280.47
2023-04-02T10:06:35.234Z,102188.94
2023-04-02T10:09:21.248Z,102276.00
2023-04-02T10:11:51.063Z,102274.88
2023-04-02T10:14:22.801Z,102280.28
2023-04-02T10:16:53.433Z,102274.28
2023-04-02T10:19:29.050Z,102288.06
2023-04-02T10:22:01.098Z,102284.06
2023-04-02T10:24:29.758Z,102292.22
2023-04-02T10:27:06.675Z,102303.19
2023-04-02T10:29:53.157Z,102309.31
2023-04-02T10:32:26.266Z,102311.97
2023-04-02T10:34:59.476Z,102318.34
2023-04-02T10:38:08.961Z,102324.72
2023-04-02T10:40:41.782Z,102330.31
2023-04-02T10:43:44.996Z,102317.63
2023-04-02T10:46:24.491Z,102281.00
2023-04-02T10:49:00.465Z,102275.16
2023-04-02T10:51:34.828Z,102325.03
2023-04-02T10:54:13.973Z,102338.75
2023-04-02T10:56:51.124Z,102336.97
2023-04-02T10:59:22.226Z,102309.47
2023-04-02T11:01:52.137Z,102363.34
2023-04-02T11:04:23.616Z,102349.34
2023-04-02T11:07:07.225Z,102337.47
2023-04-02T11:09:44.970Z,102358.72
2023-04-02T11:12:23.052Z,102356.97
2023-04-02T11:14:52.600Z,102354.88
2023-04-02T11:17:20.720Z,102349.47
2023-04-02T11:19:48.601Z,102352.19
2023-04-02T11:22:18.207Z,102360.47
2023-04-02T11:24:47.866Z,102356.06
2023-04-02T11:27:27.838Z,102370.25
2023-04-02T11:30:04.115Z,102336.47
2023-04-02T11:32:42.437Z,102385.09
2023-04-02T11:35:27.794Z,102393.59
2023-04-02T11:37:56.877Z,102387.19
2023-04-02T11:40:49.380Z,102362.09
2023-04-02T11:44:00.449Z,102410.78
2023-04-02T11:46:41.978Z,102386.69
2023-04-02T11:49:37.664Z,102403.56
2023-04-02T11:52:19.988Z,102391.59
2023-04-02T11:54:55.860Z,102401.72
2023-04-02T11:57:36.580Z,102381.75
2023-04-02T12:00:20.187Z,102402.16
2023-04-02T12:03:03.492Z,102390.44
2023-04-02T12:05:37.863Z,102403.44
2023-04-02T12:08:31.923Z,102433.16
2023-04-02T12:11:02.006Z,102407.22
2023-04-02T12:13:51.476Z,102443.13
2023-04-02T12:16:21.261Z,102406.72
2023-04-02T12:18:53.989Z,102452.28
2023-04-02T12:21:25.636Z,102416.84
2023-04-02T12:23:56.336Z,102448.66
2023-04-02T12:26:37.381Z,102454.22
2023-04-02T12:29:24.418Z,102462.88
2023-04-02T12:31:54.720Z,102436.69
2023-04-02T12:34:24.584Z,102449.88
2023-04-02T12:36:54.426Z,102435.91
2023-04-02T12:39:22.675Z,102422.34
2023-04-02T12:41:50.471Z,102431.00
2023-04-02T12:44:21.658Z,102456.38
2023-04-02T12:46:51.260Z,102436.91
2023-04-02T12:49:31.968Z,102465.41
2023-04-02T12:52:02.776Z,102466.50
2023-04-02T12:54:34.471Z,102467.53
2023-04-02T12:57:46.990Z,102456.03
2023-04-02T13:00:36.194Z,102457.00
2023-04-02T13:03:18.993Z,102471.78
2023-04-02T13:05:52.157Z,102470.75
2023-04-02T13:08:23.550Z,102428.94
2023-04-02T13:10:56.095Z,102473.41
2023-04-02T13:13:28.571Z,102479.31
2023-04-02T13:16:09.772Z,102478.53
2023-04-02T13:18:39.366Z,102472.03
2023-04-02T13:21:28.322Z,102479.53
2023-04-02T13:23:56.760Z,102489.53
2023-04-02T13:26:27.217Z,102468.44
2023-04-02T13:28:59.815Z,102439.94
2023-04-02T13:31:28.706Z,102486.25
2023-04-02T13:33:56.411Z,102454.75
2023-04-02T13:36:25.811Z,102478.63
2023-04-02T13:38:53.463Z,102478.91
2023-04-02T13:41:24.648Z,102487.97
2023-04-02T13:43:53.895Z,102505.03
2023-04-02T13:46:24.230Z,102504.53
2023-04-02T13:48:53.167Z,102517.31
2023-04-02T13:51:23.859Z,102524.91
2023-04-02T13:53:58.101Z,102507.41
2023-04-02T13:56:26.308Z,102507.22
2023-04-02T13:58:54.236Z,102457.28
2023-04-02T14:01:25.914Z,102513.00
2023-04-02T14:03:55.652Z,102516.88
2023-04-02T14:06:31.856Z,102514.50
2023-04-02T14:09:06.623Z,102522.00
2023-04-02T14:11:47.361Z,102541.09
2023-04-02T14:14:38.639Z,102542.69
2023-04-02T14:17:18.062Z,102486.53
2023-04-02T14:20:01.022Z,102523.22
2023-04-02T14:22:44.899Z,102544.53
2023-04-02T14:25:19.868Z,102549.91
2023-04-02T14:27:58.900Z,102550.53
2023-04-02T14:30:36.196Z,102534.97
2023-04-02T14:33:11.104Z,102559.31
2023-04-02T14:35:44.344Z,102554.72
2023-04-02T14:38:19.172Z,102566.25
2023-04-02T14:40:51.502Z,102563.81
2023-04-02T14:43:24.704Z,102564.78
2023-04-02T14:46:03.243Z,102574.03
2023-04-02T14:48:47.604Z,102566.13
2023-04-02T14:51:23.296Z,102574.47
2023-04-02T14:54:04.017Z,102571.50
2023-04-02T14:56:38.804Z,102569.78
2023-04-02T14:59:20.493Z,102583.38
2023-04-02T15:01:54.302Z,102590.66
2023-04-02T15:04:26.699Z,102543.03
2023-04-02T15:07:00.617Z,102602.22
2023-04-02T15:09:33.116Z,102599.97
2023-04-02T15:12:08.224Z,102573.69
2023-04-02T15:14:42.161Z,102594.47
2023-04-02T15:17:11.761Z,102595.63
2023-04-02T15:19:39.687Z,102568.09
2023-04-02T15:22:29.412Z,102601.56
2023-04-02T15:25:07.890Z,102600.78
2023-04-02T15:27:57.109Z,102611.53
2023-04-02T15:30:28.934Z,102614.78
2023-04-02T15:33:18.460Z,102614.75
2023-04-02T15:35:52.407Z,102628.50
2023-04-02T15:38:26.134Z,102639.81
2023-04-02T15:40:59.709Z,102642.13
2023-04-02T15:43:31.655Z,102640.38
2023-04-02T15:46:10.351Z,102643.47
2023-04-02T15:49:01.229Z,102629.00
2023-04-02T15:51:40.268Z,102649.59
2023-04-02T15:54:21.676Z,102656.13
2023-04-02T15:56:56.290Z,102661.03
2023-04-02T15:59:52.426Z,102632.56
2023-04-02T16:02:52.019Z,102652.22
2023-04-02T16:05:29.930Z,102643.94
2023-04-02T16:08:13.197Z,102666.44
2023-04-02T16:10:43.277Z,102674.47
2023-04-02T16:13:18.869Z,102667.84
2023-04-02T16:15:52.752Z,102682.38
2023-04-02T16:18:35.685Z,102700.00
2023-04-02T16:21:04.637Z,102694.13
2023-04-02T16:23:36.070Z,102704.38
2023-04-02T16:26:13.078Z,102653.03
2023-04-02T16:28:48.310Z,102695.56
2023-04-02T16:31:24.824Z,102710.91
2023-04-02T16:34:02.412Z,102711.53
2023-04-02T16:36:46.413Z,102723.44
2023-04-02T16:39:28.706Z,102727.97
2023-04-02T16:42:08.865Z,102726.03
2023-04-02T16:44:46.998Z,102724.75
2023-04-02T16:47:29.079Z,102722.03
2023-04-02T16:50:03.092Z,102732.34
2023-04-02T16:52:41.463Z,102751.13
2023-04-02T16:55:24.397Z,102761.13
2023-04-02T16:57:59.818Z,102765.88
2023-04-02T17:00:35.940Z,102765.13
2023-04-02T17:03:26.731Z,102774.72
2023-04-02T17:05:59.387Z,102775.84
2023-04-02T17:08:31.400Z,102782.34
2023-04-02T17:11:02.545Z,102781.34
2023-04-02T17:13:39.046Z,102796.84
2023-04-02T17:16:15.095Z,102794.78
2023-04-02T17:18:47.243Z,102814.78
2023-04-02T17:21:18.615Z,102819.03
2023-04-02T17:26:24.413Z,102820.16
2023-04-02T17:28:52.927Z,102813.59
2023-04-02T17:31:23.676Z,102830.69
2023-04-02T17:33:52.858Z,102836.66
2023-04-02T17:36:33.210Z,102844.16
2023-04-02T17:39:11.005Z,102845.34
2023-04-02T17:41:43.906Z,102847.50
2023-04-02T17:44:46.143Z,102865.97
2023-04-02T17:47:20.778Z,102861.81
2023-04-02T17:50:08.243Z,102860.16
2023-04-02T17:52:41.686Z,102868.25
2023-04-02T17:55:22.592Z,102867.63
2023-04-02T17:58:01.190Z,102874.16
2023-04-02T18:00:55.445Z,102891.56
2023-04-02T18:03:36.513Z,102833.91
2023-04-02T18:06:12.232Z,102812.31
2023-04-02T18:08:51.461Z,102898.16
2023-04-02T18:11:30.768Z,102905.00
2023-04-02T18:14:01.270Z,102912.25
2023-04-02T18:16:44.471Z,102911.56
2023-04-02T18:19:18.338Z,102910.50
2023-04-02T18:21:55.463Z,102928.72
2023-04-02T18:24:39.148Z,102923.66
2023-04-02T18:27:40.132Z,102938.44
2023-04-02T18:30:16.849Z,102933.28
2023-04-02T18:33:05.766Z,102949.00
2023-04-02T18:35:35.036Z,102946.63
2023-04-02T18:38:20.143Z,102940.22
2023-04-02T18:41:00.669Z,102959.88
2023-04-02T18:43:38.758Z,102952.25
2023-04-02T18:46:17.564Z,102957.38
2023-04-02T18:48:56.773Z,102959.19
2023-04-02T18:51:26.394Z,102965.16
2023-04-02T18:54:03.893Z,102974.97
2023-04-02T18:56:32.969Z,102953.84
2023-04-02T18:59:15.566Z,102987.84
2023-04-02T19:01:48.184Z,102989.81
2023-04-02T19:04:20.138Z,102957.03
2023-04-02T19:06:53.848Z,102979.63
2023-04-02T19:09:28.452Z,103002.94
2023-04-02T19:11:56.545Z,102986.44
2023-04-02T19:14:24.736Z,103000.06
2023-04-02T19:17:03.575Z,103003.81
2023-04-02T19:19:38.387Z,103011.84
2023-04-02T19:22:16.664Z,102973.56
2023-04-02T19:25:20.048Z,103014.03
2023-04-02T19:27:58.551Z,103025.19
2023-04-02T19:30:38.846Z,103029.19
2023-04-02T19:33:16.638Z,103012.59
2023-04-02T19:35:49.033Z,103029.97
2023-04-02T19:38:33.561Z,103026.97
2023-04-02T19:41:10.952Z,103041.44
2023-04-02T19:43:38.766Z,103033.13
2023-04-02T19:46:07.032Z,103032.31
2023-04-02T19:48:44.491Z,103036.91
2023-04-02T19:51:12.244Z,103022.22
2023-04-02T19:53:40.074Z,103042.25
2023-04-02T19:56:09.227Z,103038.63
2023-04-02T19:58:37.733Z,103047.84
2023-04-02T20:01:05.679Z,103058.22
2023-04-02T20:03:33.736Z,103051.34
2023-04-02T20:06:01.558Z,103064.88
2023-04-02T20:08:29.376Z,103063.06
2023-04-02T20:10:58.584Z,103075.41
2023-04-02T20:13:27.889Z,103058.22
2023-04-02T20:15:55.792Z,103059.50
2023-04-02T20:18:23.571Z,103070.41
2023-04-02T20:20:51.263Z,103066.88
2023-04-02T20:23:20.074Z,103076.56
2023-04-02T20:25:52.782Z,103089.44
2023-04-02T20:28:20.585Z,103087.78
2023-04-02T20:30:51.121Z,103085.59
2023-04-02T20:33:19.574Z,103094.41
2023-04-02T20:35:47.660Z,103098.25
2023-04-02T20:38:15.867Z,103108.81
2023-04-02T20:40:44.087Z,103105.63
2023-04-02T20:43:12.050Z,103108.88
2023-04-02T20:45:39.818Z,103122.56
2023-04-02T20:48:09.298Z,103122.91
2023-04-02T20:50:37.490Z,103127.66
2023-04-02T20:53:05.496Z,103116.91
2023-04-02T20:55:33.262Z,103123.66
2023-04-02T20:58:01.198Z,103143.13
2023-04-02T21:00:28.920Z,103132.25
2023-04-02T21:02:57.662Z,103139.13
2023-04-02T21:05:26.911Z,103135.91
2023-04-02T21:07:54.642Z,103147.34
2023-04-02T21:10:22.383Z,103158.81
2023-04-02T21:12:50.649Z,103164.84
2023-04-02T21:15:18.610Z,103168.28
2023-04-02T21:17:46.397Z,103162.25
2023-04-02T21:20:14.131Z,103176.69
2023-04-02T21:22:43.299Z,103174.84
2023-04-02T21:25:11.015Z,103123.84
2023-04-02T21:27:38.759Z,103165.44
2023-04-02T21:30:07.719Z,103159.25
2023-04-02T21:32:35.519Z,103170.66
2023-04-02T21:35:03.248Z,103186.28
2023-04-02T21:37:31.143Z,103183.41
2023-04-02T21:40:00.204Z,103197.00
2023-04-02T21:42:28.859Z,103183.06
2023-04-02T21:44:56.674Z,103193.78
2023-04-02T21:47:24.889Z,103193.31
2023-04-02T21:49:52.561Z,103203.22
2023-04-02T21:52:20.264Z,103180.00
2023-04-02T21:54:47.935Z,103183.72
2023-04-02T21:57:17.968Z,103199.50
2023-04-02T21:59:46.837Z,103181.88
2023-04-02T22:02:14.487Z,103202.69
2023-04-02T22:04:42.373Z,103107.84
2023-04-02T22:07:10.106Z,103184.41
2023-04-02T22:09:37.796Z,103205.91
2023-04-02T22:12:07.860Z,103175.28
2023-04-02T22:14:36.964Z,103202.25
2023-04-02T22:17:04.830Z,103157.94
2023-04-02T22:19:33.420Z,103204.34
2023-04-02T22:22:01.131Z,103193.28
2023-04-02T22:24:28.998Z,103185.59
2023-04-02T22:26:56.691Z,103183.19
2023-04-02T22:29:24.746Z,103184.25
2023-04-02T22:31:53.863Z,103146.09
2023-04-02T22:34:22.106Z,103194.16
2023-04-02T22:36:49.927Z,103184.84
2023-04-02T22:39:17.881Z,103185.00
2023-04-02T22:41:45.748Z,103201.84
2023-04-02T22:44:15.439Z,103218.09
2023-04-02T22:46:43.251Z,103213.38
2023-04-02T22:49:12.730Z,103218.53
2023-04-02T22:51:40.515Z,103225.44
2023-04-02T22:54:08.206Z,103226.72
2023-04-02T22:56:37.444Z,103215.91
2023-04-02T22:59:05.706Z,103222.28
2023-04-02T23:01:35.718Z,103243.06
2023-04-02T23:04:05.027Z,103240.69
2023-04-02T23:06:34.622Z,103253.19
2023-04-02T23:09:02.329Z,103235.69
2023-04-02T23:11:30.333Z,103248.94
2023-04-02T23:13:58.946Z,103248.97
2023-04-02T23:16:28.596Z,103243.81
2023-04-02T23:18:57.296Z,103237.31
2023-04-02T23:21:25.558Z,103237.00
2023-04-02T23:23:55.029Z,103239.72
2023-04-02T23:26:24.569Z,103239.88
2023-04-02T23:28:52.509Z,103263.84
2023-04-02T23:31:22.435Z,103252.91
2023-04-02T23:33:51.206Z,103259.63
2023-04-02T23:36:22.575Z,103211.88
2023-04-02T23:38:54.889Z,103266.69
2023-04-02T23:41:26.710Z,103232.47
2023-04-02T23:43:54.786Z,103270.13
2023-04-02T23:46:22.859Z,103284.25
2023-04-02T23:48:51.485Z,103265.25
2023-04-02T23:51:19.918Z,103297.09
2023-04-02T23:53:48.451Z,103284.44
2023-04-02T23:56:16.423Z,103271.78
2023-04-02T23:58:45.599Z,103311.44
